Ana Sayfa
METAR-TAF:

METAR-TAF

Havaalanları :

Elk Valley

Sparwood, İngiliz Kolombiyası, Kanada

Enlem: 49-45N, Boylam: 114-53W, yükseklik: 1138 m

Güncel hava durumu gözlemi

Rapor saat 01:00 UTC de 4 saat ve 2 dakika önce yapıldı.
Rüzgar güneydan 8 kt ve 24 kt'a kadar ani rüzgarlar
Sıcaklık 10°C
Nem 71%
Basınç 1020 hPa
Görüş mesafesi: 32.2 km
4000 ft yükseklikte az bulutlu
5500 ft yükseklikte parçalı çok bulutlu

METAR: CWSW 190100Z 17008G24KT 20SM FEW040 BKN055 10/05 A3012 RMK SC1SC6 LAST STFD OBS/NXT 191300Z SLP215 DENSITY ALT 3900FT

Saat: 23:02 (05:02 UTC)


TAF: eksik

4.000'den fazla havaalanı için hava durumu gözlemleri ve tahminleri (METAR ve TAF raporları).

Kullanılabilir istasyonlar harita üzerinde sarı ve kırmızı noktalarla gösterilir.

İstasyonun adını görmek için fareyi noktanın üzerinde gezdirin.

Sonrasında hava gözlem ve tahminlerini görmek için tıklayın.

Haritayı değiştirmek için: yaklaştırmak için siyah artı işaretli yeşil düğmeye ve uzaklaştırmak için de eksi işaretli düğmeye hızla tıklayın; bitişik haritalar için yeşil okları kullanın.


METAR-TAF: